Time;durP1;ratioP1;P1;durP2;ratioP2;P2;SDS_P1;SDS_P2;PMS_P1;PMS_P2;Temp;Humidity;BMP_temperature;BMP_pressure;BME280_temperature;BME280_humidity;BME280_pressure;Samples;Min_cycle;Max_cycle;Signal;HPM_P1;HPM_P2
2022/04/06 00:01:38;;;;;;;17.55;7.38;;;8.20;92.90;;;;;;5135044;27;20019;-61
2022/04/06 00:04:06;;;;;;;12.95;6.75;;;8.10;92.90;;;;;;5116261;28;20042;-61
2022/04/06 00:06:31;;;;;;;17.10;8.23;;;8.10;92.90;;;;;;5134491;27;20033;-61
2022/04/06 00:08:57;;;;;;;14.45;7.18;;;8.10;92.90;;;;;;5136241;27;20023;-63
2022/04/06 00:11:23;;;;;;;15.13;7.28;;;8.20;92.90;;;;;;5136705;27;20371;-62
2022/04/06 00:13:49;;;;;;;18.95;7.40;;;8.10;92.90;;;;;;5135448;27;20043;-62
2022/04/06 00:16:15;;;;;;;15.85;7.15;;;8.20;92.90;;;;;;5135997;27;20339;-61
2022/04/06 00:18:41;;;;;;;18.63;7.53;;;8.10;92.80;;;;;;5135754;27;20039;-61
2022/04/06 00:21:07;;;;;;;19.48;7.40;;;8.10;92.80;;;;;;5136346;27;20019;-61
2022/04/06 00:23:32;;;;;;;11.23;6.25;;;8.10;92.80;;;;;;5136577;27;20517;-61
2022/04/06 00:26:01;;;;;;;18.45;6.72;;;8.10;92.80;;;;;;5136631;27;20109;-61
2022/04/06 00:28:27;;;;;;;15.83;6.17;;;8.10;92.80;;;;;;5135138;27;20034;-60
2022/04/06 00:30:53;;;;;;;13.45;5.70;;;8.10;92.80;;;;;;5135411;27;20038;-59
2022/04/06 00:33:21;;;;;;;14.18;5.93;;;8.10;92.70;;;;;;5136906;27;20027;-58
2022/04/06 00:35:46;;;;;;;13.50;7.30;;;8.00;92.70;;;;;;5134596;27;20391;-58
2022/04/06 00:38:12;;;;;;;15.95;5.50;;;8.00;92.70;;;;;;5134337;27;20308;-56
2022/04/06 00:40:38;;;;;;;11.00;5.70;;;8.10;92.80;;;;;;5133724;27;20027;-56
2022/04/06 00:43:08;;;;;;;16.40;5.45;;;8.00;92.80;;;;;;5136315;27;20031;-52
2022/04/06 00:45:34;;;;;;;16.20;6.30;;;8.10;92.80;;;;;;5135345;27;20031;-55
2022/04/06 00:48:00;;;;;;;17.73;6.13;;;8.00;92.80;;;;;;5118131;27;20031;-52
2022/04/06 00:50:30;;;;;;;15.63;6.30;;;8.00;92.80;;;;;;5136949;27;20095;-55
2022/04/06 00:52:57;;;;;;;13.75;5.32;;;8.10;92.80;;;;;;5135366;27;20038;-52
2022/04/06 00:55:32;;;;;;;16.50;6.00;;;8.00;92.80;;;;;;5136057;27;20039;-55
2022/04/06 00:58:01;;;;;;;20.70;7.93;;;8.10;92.80;;;;;;5135823;27;20019;-54
2022/04/06 01:00:27;;;;;;;16.13;7.20;;;8.00;92.80;;;;;;5135407;27;20023;-56
2022/04/06 01:02:53;;;;;;;16.80;8.05;;;8.00;92.80;;;;;;5133591;27;20086;-56
2022/04/06 01:05:19;;;;;;;17.70;9.50;;;8.10;92.70;;;;;;5135558;27;20532;-56
2022/04/06 01:07:50;;;;;;;17.85;8.25;;;8.10;92.80;;;;;;5125317;27;20419;-56
2022/04/06 01:10:16;;;;;;;24.70;10.48;;;8.10;92.80;;;;;;5119314;27;20049;-55
2022/04/06 01:13:09;;;;;;;17.10;10.00;;;8.10;92.80;;;;;;5151473;27;20039;-57
2022/04/06 01:15:34;;;;;;;15.90;8.93;;;8.10;92.80;;;;;;5166229;27;20061;-56
2022/04/06 01:18:02;;;;;;;18.52;12.15;;;8.10;92.80;;;;;;5174071;27;20042;-56
2022/04/06 01:20:29;;;;;;;15.10;10.70;;;8.20;92.80;;;;;;5174331;27;20345;-55
2022/04/06 01:22:54;;;;;;;27.05;13.98;;;8.20;92.70;;;;;;5176690;27;20022;-53
2022/04/06 01:25:20;;;;;;;25.02;13.10;;;8.20;92.70;;;;;;5169883;27;20341;-55
2022/04/06 01:27:45;;;;;;;18.05;12.30;;;8.20;92.70;;;;;;5148292;27;20538;-52
2022/04/06 01:30:12;;;;;;;24.02;13.70;;;8.20;92.70;;;;;;5160637;27;20175;-52
2022/04/06 01:32:38;;;;;;;23.05;12.93;;;8.20;92.60;;;;;;5176893;27;20030;-51
2022/04/06 01:35:07;;;;;;;18.27;12.82;;;8.20;92.60;;;;;;5176719;27;20102;-50
2022/04/06 01:37:34;;;;;;;22.38;13.57;;;8.20;92.60;;;;;;5177339;27;20026;-53
2022/04/06 01:40:00;;;;;;;20.15;13.50;;;8.20;92.60;;;;;;5170903;27;20022;-52
2022/04/06 01:42:25;;;;;;;20.02;12.00;;;8.20;92.60;;;;;;5160952;27;20043;-52
2022/04/06 01:44:52;;;;;;;17.92;12.35;;;8.20;92.60;;;;;;5172816;27;20041;-54
2022/04/06 01:47:22;;;;;;;27.60;12.82;;;8.20;92.50;;;;;;5173238;27;20097;-52
2022/04/06 01:52:38;;;;;;;20.38;11.68;;;8.20;92.50;;;;;;5172820;27;20073;-55
2022/04/06 01:55:12;;;;;;;19.65;12.63;;;8.20;92.50;;;;;;5173173;27;20565;-52
2022/04/06 01:57:40;;;;;;;21.25;11.40;;;8.20;92.50;;;;;;5174720;27;20022;-51
2022/04/06 02:00:15;;;;;;;19.52;11.73;;;8.10;92.40;;;;;;5150190;27;20065;-50
2022/04/06 02:02:43;;;;;;;24.15;10.48;;;8.20;92.50;;;;;;5146552;27;20026;-49
2022/04/06 02:05:09;;;;;;;17.10;10.90;;;8.10;92.40;;;;;;5176045;27;20030;-48
2022/04/06 02:07:35;;;;;;;20.40;12.20;;;8.10;92.40;;;;;;5175463;27;20033;-47
2022/04/06 02:10:02;;;;;;;23.27;10.88;;;8.10;92.30;;;;;;5176892;27;20037;-47
2022/04/06 02:12:29;;;;;;;15.38;9.80;;;8.10;92.30;;;;;;5175195;27;20045;-47
2022/04/06 02:14:55;;;;;;;22.60;11.30;;;8.10;92.30;;;;;;5170495;27;20025;-47
2022/04/06 02:17:26;;;;;;;16.38;10.18;;;8.10;92.30;;;;;;5150714;27;20453;-47
2022/04/06 02:19:51;;;;;;;19.42;10.43;;;8.10;92.20;;;;;;5155730;27;20026;-47
2022/04/06 02:22:20;;;;;;;20.00;9.85;;;8.10;92.30;;;;;;5137337;27;20437;-48
2022/04/06 02:24:46;;;;;;;23.63;10.43;;;8.10;92.20;;;;;;5173797;27;20097;-48
2022/04/06 02:27:11;;;;;;;23.25;11.25;;;8.10;92.20;;;;;;5176113;27;20102;-53
2022/04/06 02:29:39;;;;;;;18.77;11.02;;;8.10;92.20;;;;;;5175710;27;20041;-53
2022/04/06 02:32:06;;;;;;;18.95;10.73;;;8.10;92.20;;;;;;5168012;27;20037;-51
2022/04/06 02:34:32;;;;;;;19.17;10.63;;;8.10;92.20;;;;;;5155697;27;20030;-46
2022/04/06 02:36:58;;;;;;;20.60;11.52;;;8.10;92.20;;;;;;5161063;27;20071;-48
2022/04/06 02:39:24;;;;;;;22.33;11.27;;;8.10;92.20;;;;;;5174706;27;20076;-47
2022/04/06 02:41:53;;;;;;;21.63;11.50;;;8.10;92.20;;;;;;5174189;27;20029;-47
2022/04/06 02:44:21;;;;;;;26.27;13.10;;;8.10;92.10;;;;;;5175035;27;20030;-51
2022/04/06 02:46:50;;;;;;;24.17;12.95;;;8.10;92.20;;;;;;5156759;27;20045;-45
2022/04/06 02:49:16;;;;;;;31.47;14.90;;;8.10;92.20;;;;;;5175484;27;20110;-48
2022/04/06 02:51:42;;;;;;;29.50;14.55;;;8.10;92.20;;;;;;5175134;27;20036;-46
2022/04/06 02:54:10;;;;;;;24.23;15.48;;;8.10;92.20;;;;;;5157599;27;20491;-51
2022/04/06 02:56:36;;;;;;;27.52;16.45;;;8.10;92.20;;;;;;5176393;27;20372;-48
2022/04/06 02:59:04;;;;;;;36.97;17.40;;;8.10;92.20;;;;;;5175334;27;20022;-47
2022/04/06 03:01:30;;;;;;;29.88;16.60;;;8.10;92.20;;;;;;5174347;27;20330;-48
2022/04/06 03:03:55;;;;;;;27.50;17.48;;;8.10;92.30;;;;;;5174805;27;20041;-48
2022/04/06 03:06:21;;;;;;;35.60;17.02;;;8.10;92.20;;;;;;5156987;27;20023;-55
2022/04/06 03:08:46;;;;;;;33.10;17.77;;;8.20;92.20;;;;;;5156007;27;20034;-57
2022/04/06 03:11:12;;;;;;;35.25;18.23;;;8.10;92.10;;;;;;5157211;27;20037;-55
2022/04/06 03:13:38;;;;;;;33.83;18.48;;;8.10;92.20;;;;;;5163835;27;20520;-52
2022/04/06 03:16:05;;;;;;;32.80;18.65;;;8.10;92.20;;;;;;5153062;27;20027;-52
2022/04/06 03:18:33;;;;;;;32.28;18.20;;;8.10;92.20;;;;;;5151305;27;20039;-51
2022/04/06 03:20:58;;;;;;;37.70;18.77;;;8.10;92.20;;;;;;5144224;27;20032;-50
2022/04/06 03:23:24;;;;;;;39.70;18.80;;;8.10;92.20;;;;;;5150765;27;20030;-50
2022/04/06 03:25:49;;;;;;;35.72;17.90;;;8.10;92.20;;;;;;5154895;27;20039;-52
2022/04/06 03:28:15;;;;;;;36.55;19.58;;;8.10;92.20;;;;;;5136305;27;20038;-49
2022/04/06 03:30:42;;;;;;;38.65;19.30;;;8.20;92.10;;;;;;5154149;27;20109;-49
2022/04/06 03:33:09;;;;;;;30.42;18.95;;;8.20;92.10;;;;;;5135968;27;20031;-53
2022/04/06 03:35:35;;;;;;;35.92;20.67;;;8.10;92.10;;;;;;5118362;27;20345;-63
2022/04/06 03:38:02;;;;;;;35.30;19.15;;;8.10;92.10;;;;;;5135006;27;20063;-64
2022/04/06 03:40:30;;;;;;;36.95;21.23;;;8.20;92.10;;;;;;5135236;27;20026;-59
2022/04/06 03:42:56;;;;;;;33.08;17.25;;;8.20;92.10;;;;;;5139352;27;20081;-57
2022/04/06 03:45:22;;;;;;;36.75;19.85;;;8.10;92.10;;;;;;5153793;27;20027;-57
2022/04/06 03:47:47;;;;;;;34.90;20.00;;;8.20;92.10;;;;;;5135756;27;20056;-56
2022/04/06 03:50:14;;;;;;;31.77;19.00;;;8.20;92.10;;;;;;5152772;27;20038;-56
2022/04/06 03:52:40;;;;;;;30.02;18.75;;;8.20;92.10;;;;;;5153436;27;20022;-54
2022/04/06 03:55:08;;;;;;;37.95;18.38;;;8.20;92.20;;;;;;5128218;28;20019;-56
2022/04/06 03:57:35;;;;;;;36.08;16.58;;;8.20;92.10;;;;;;5127758;27;20027;-55
2022/04/06 04:00:04;;;;;;;25.00;16.50;;;8.20;92.10;;;;;;5152524;27;20163;-56
2022/04/06 04:02:32;;;;;;;33.08;17.23;;;8.20;92.00;;;;;;5153704;27;20037;-54
2022/04/06 04:04:58;;;;;;;30.17;17.40;;;8.20;92.00;;;;;;5135300;27;20027;-54
2022/04/06 04:07:24;;;;;;;29.83;15.60;;;8.20;92.00;;;;;;5153965;27;20023;-51
2022/04/06 04:09:50;;;;;;;27.63;16.25;;;8.20;92.00;;;;;;5144301;27;20323;-51
2022/04/06 04:12:17;;;;;;;29.27;16.98;;;8.20;91.90;;;;;;5154848;27;20328;-51
2022/04/06 04:14:43;;;;;;;35.58;16.65;;;8.20;91.90;;;;;;5178336;27;20380;-48
2022/04/06 04:17:09;;;;;;;28.27;15.82;;;8.20;91.80;;;;;;5159598;27;20050;-51
2022/04/06 04:19:35;;;;;;;29.67;16.25;;;8.20;91.80;;;;;;5159131;27;20057;-47
2022/04/06 04:22:00;;;;;;;30.73;14.23;;;8.10;91.70;;;;;;5178263;27;20019;-49
2022/04/06 04:24:28;;;;;;;27.48;14.65;;;8.10;91.70;;;;;;5177805;27;20117;-47
2022/04/06 04:26:56;;;;;;;22.60;13.68;;;8.20;91.70;;;;;;5158763;27;20165;-48
2022/04/06 04:29:22;;;;;;;23.02;12.38;;;8.10;91.60;;;;;;5179041;27;20034;-46
2022/04/06 04:31:50;;;;;;;24.17;13.05;;;8.10;91.50;;;;;;5177198;27;20360;-47
2022/04/06 04:34:15;;;;;;;22.55;12.13;;;8.10;91.50;;;;;;5159887;27;20125;-54
2022/04/06 04:36:41;;;;;;;24.35;12.35;;;8.10;91.50;;;;;;5175601;27;20109;-51
2022/04/06 04:39:07;;;;;;;21.48;11.48;;;8.10;91.40;;;;;;5177859;27;20027;-48
2022/04/06 04:41:33;;;;;;;26.17;11.98;;;8.10;91.30;;;;;;5177197;27;20050;-48
2022/04/06 04:43:59;;;;;;;20.85;11.00;;;8.10;91.30;;;;;;5178226;27;20479;-48
2022/04/06 04:46:25;;;;;;;22.45;12.07;;;8.10;91.30;;;;;;5177713;27;20058;-48
2022/04/06 04:48:53;;;;;;;16.95;11.23;;;8.00;91.30;;;;;;5178564;27;20199;-49
2022/04/06 04:51:18;;;;;;;22.52;12.20;;;8.10;91.30;;;;;;5177118;27;20493;-51
2022/04/06 04:53:44;;;;;;;22.02;11.05;;;8.10;91.30;;;;;;5176173;27;20061;-51
2022/04/06 04:56:10;;;;;;;20.83;10.55;;;8.00;91.20;;;;;;5177151;27;20034;-47
2022/04/06 04:58:36;;;;;;;19.05;10.82;;;8.00;91.20;;;;;;5178145;27;20481;-52
2022/04/06 05:01:02;;;;;;;19.88;9.88;;;8.00;91.10;;;;;;5175650;27;20318;-48
2022/04/06 05:03:30;;;;;;;17.15;9.80;;;8.10;91.10;;;;;;5158522;27;20030;-47
2022/04/06 05:05:56;;;;;;;18.60;9.10;;;8.10;91.00;;;;;;5174758;27;20145;-48
2022/04/06 05:08:22;;;;;;;18.15;8.48;;;8.10;90.90;;;;;;5141049;27;20441;-47
2022/04/06 05:10:48;;;;;;;18.17;8.95;;;8.00;90.80;;;;;;5176064;27;20357;-47
2022/04/06 05:13:14;;;;;;;13.85;7.07;;;8.10;90.80;;;;;;5167385;27;20046;-46
2022/04/06 05:15:41;;;;;;;18.42;8.10;;;8.10;90.70;;;;;;5139563;27;20087;-48
2022/04/06 05:18:07;;;;;;;14.68;8.55;;;8.10;90.60;;;;;;5159177;27;20029;-46
2022/04/06 05:20:35;;;;;;;17.60;7.82;;;8.10;90.60;;;;;;5154630;27;20090;-46
2022/04/06 05:23:01;;;;;;;16.60;7.70;;;8.10;90.60;;;;;;5155906;27;20023;-47
2022/04/06 05:25:26;;;;;;;15.18;7.97;;;8.20;90.50;;;;;;5137895;27;20029;-45
2022/04/06 05:27:56;;;;;;;13.52;7.90;;;8.20;90.40;;;;;;5136305;27;20118;-47
2022/04/06 05:30:25;;;;;;;19.85;9.00;;;8.20;90.30;;;;;;5154182;27;20039;-47
2022/04/06 05:32:54;;;;;;;20.83;8.93;;;8.20;90.20;;;;;;5131801;27;20063;-49
2022/04/06 05:35:25;;;;;;;18.92;6.70;;;8.20;90.10;;;;;;5152275;27;20050;-44
2022/04/06 05:37:51;;;;;;;13.60;8.02;;;8.20;90.10;;;;;;5155887;27;20338;-47
2022/04/06 05:40:18;;;;;;;19.38;8.35;;;8.20;90.10;;;;;;5132746;27;20045;-48
2022/04/06 05:42:44;;;;;;;12.75;8.10;;;8.30;90.20;;;;;;5153119;27;20110;-46
2022/04/06 05:45:13;;;;;;;22.52;10.35;;;8.30;90.20;;;;;;5153783;27;20134;-45
2022/04/06 05:47:39;;;;;;;19.58;9.07;;;8.30;90.10;;;;;;5131834;27;20065;-44
2022/04/06 05:50:07;;;;;;;16.92;9.50;;;8.40;90.10;;;;;;5155411;27;20066;-49
2022/04/06 05:52:33;;;;;;;18.40;9.70;;;8.30;90.00;;;;;;5135315;27;20445;-46
2022/04/06 05:54:58;;;;;;;24.75;9.77;;;8.40;90.00;;;;;;5153562;27;20026;-44
2022/04/06 05:57:24;;;;;;;20.48;9.57;;;8.40;90.00;;;;;;5154274;27;20040;-45
2022/04/06 05:59:50;;;;;;;20.02;9.50;;;8.40;90.10;;;;;;5136072;27;20484;-47
2022/04/06 06:02:15;;;;;;;17.27;10.25;;;8.40;90.00;;;;;;5162249;27;20432;-45
2022/04/06 06:04:41;;;;;;;19.20;9.20;;;8.40;90.00;;;;;;5170874;27;20030;-43
2022/04/06 06:07:10;;;;;;;21.70;11.00;;;8.40;90.00;;;;;;5147097;27;20031;-44
2022/04/06 06:09:36;;;;;;;27.52;11.90;;;8.50;90.00;;;;;;5155234;27;20038;-44
2022/04/06 06:12:03;;;;;;;26.90;11.52;;;8.50;89.90;;;;;;5160962;27;20039;-47
2022/04/06 06:14:29;;;;;;;19.40;11.60;;;8.50;89.80;;;;;;5150832;27;20054;-44
2022/04/06 06:16:55;;;;;;;25.88;11.43;;;8.60;89.80;;;;;;5137089;27;20015;-44
2022/04/06 06:19:23;;;;;;;22.30;12.18;;;8.70;89.70;;;;;;5137676;27;20019;-45
2022/04/06 06:21:51;;;;;;;21.75;11.75;;;8.60;89.70;;;;;;5174329;27;20030;-48
2022/04/06 06:24:20;;;;;;;16.88;11.55;;;8.70;89.70;;;;;;5155605;27;20053;-45
2022/04/06 06:26:47;;;;;;;24.83;12.50;;;8.70;89.70;;;;;;5157010;27;20026;-43
2022/04/06 06:29:12;;;;;;;21.60;13.38;;;8.70;89.70;;;;;;5173084;27;20395;-43
2022/04/06 06:31:38;;;;;;;19.00;11.77;;;8.70;89.80;;;;;;5162046;27;20038;-42
2022/04/06 06:34:04;;;;;;;18.27;11.68;;;8.80;89.80;;;;;;5174885;27;20370;-46
2022/04/06 06:36:32;;;;;;;21.58;12.55;;;8.80;89.80;;;;;;5172846;27;20101;-42
2022/04/06 06:39:01;;;;;;;21.65;11.45;;;8.80;89.70;;;;;;5172475;27;20026;-43
2022/04/06 06:41:27;;;;;;;17.77;12.07;;;8.80;89.70;;;;;;5174871;27;20648;-42
2022/04/06 06:43:54;;;;;;;23.95;12.43;;;8.90;89.80;;;;;;5174410;27;20105;-43
2022/04/06 06:46:23;;;;;;;17.88;10.90;;;8.90;89.90;;;;;;5147334;27;20030;-42
2022/04/06 06:48:49;;;;;;;25.23;14.30;;;8.90;89.70;;;;;;5173596;27;20025;-43
2022/04/06 06:51:16;;;;;;;22.70;11.45;;;8.80;89.70;;;;;;5173396;27;20041;-43
2022/04/06 06:53:42;;;;;;;20.45;9.90;;;8.80;89.90;;;;;;5149767;27;20110;-48
2022/04/06 06:56:08;;;;;;;19.13;10.60;;;8.80;89.90;;;;;;5148637;27;20026;-44
2022/04/06 06:58:34;;;;;;;19.80;11.25;;;8.70;89.90;;;;;;5170682;27;20031;-44
2022/04/06 07:01:00;;;;;;;16.70;9.90;;;8.70;90.00;;;;;;5170201;27;20061;-45
2022/04/06 07:03:25;;;;;;;16.80;9.85;;;8.70;90.20;;;;;;5168105;27;20030;-47
2022/04/06 07:05:52;;;;;;;21.15;10.15;;;8.60;90.30;;;;;;5164291;27;20413;-47
2022/04/06 07:08:17;;;;;;;16.55;9.48;;;8.60;90.40;;;;;;5169769;27;20065;-52
2022/04/06 07:10:47;;;;;;;13.70;9.70;;;8.70;90.40;;;;;;5171816;27;20058;-54
2022/04/06 07:13:16;;;;;;;14.10;9.18;;;8.70;90.50;;;;;;5170570;27;20306;-57
2022/04/06 07:15:43;;;;;;;14.50;9.63;;;8.70;90.60;;;;;;5170027;27;20035;-56
2022/04/06 07:18:12;;;;;;;19.13;11.55;;;8.70;90.70;;;;;;5170754;27;20361;-56
2022/04/06 07:20:39;;;;;;;14.57;8.77;;;8.70;90.70;;;;;;5170953;27;20072;-58
2022/04/06 07:23:06;;;;;;;13.68;8.90;;;8.70;90.80;;;;;;5171472;27;20854;-57
2022/04/06 07:25:34;;;;;;;15.48;8.90;;;8.70;90.90;;;;;;5151451;27;20502;-57
2022/04/06 07:28:00;;;;;;;12.00;7.90;;;8.60;91.00;;;;;;5170677;27;20105;-57
2022/04/06 07:30:26;;;;;;;16.98;9.32;;;8.70;91.10;;;;;;5170177;27;20027;-56
2022/04/06 07:32:52;;;;;;;12.40;8.43;;;8.60;91.10;;;;;;5135155;27;20033;-53
2022/04/06 07:35:18;;;;;;;13.40;7.97;;;8.70;91.10;;;;;;5170560;27;20026;-55
2022/04/06 07:37:47;;;;;;;13.82;7.97;;;8.70;91.10;;;;;;5170999;27;20026;-56
2022/04/06 07:40:14;;;;;;;12.35;8.32;;;8.70;91.10;;;;;;5166600;27;20057;-56
2022/04/06 07:42:41;;;;;;;14.15;7.35;;;8.60;91.10;;;;;;5170771;27;20023;-58
2022/04/06 07:45:09;;;;;;;14.48;7.47;;;8.70;91.20;;;;;;5153319;27;20041;-58
2022/04/06 07:47:40;;;;;;;12.43;7.47;;;8.90;91.20;;;;;;5176473;27;20503;-59
2022/04/06 07:50:08;;;;;;;13.48;6.63;;;8.80;91.00;;;;;;5173196;27;20045;-59
2022/04/06 07:52:35;;;;;;;10.02;6.70;;;8.80;91.00;;;;;;5157173;27;20460;-56
2022/04/06 07:55:02;;;;;;;10.90;6.95;;;8.70;91.00;;;;;;5167349;27;20037;-57
2022/04/06 07:57:28;;;;;;;11.60;5.65;;;8.70;91.10;;;;;;5171956;27;20033;-54
2022/04/06 07:59:55;;;;;;;12.63;6.07;;;8.70;90.90;;;;;;5173201;27;20089;-52
2022/04/06 08:02:20;;;;;;;11.45;5.53;;;8.70;91.00;;;;;;5174674;27;20027;-53
2022/04/06 08:04:46;;;;;;;9.02;5.45;;;8.60;91.10;;;;;;5166524;27;20018;-57
2022/04/06 08:07:14;;;;;;;12.32;5.25;;;8.60;91.30;;;;;;5174714;27;20045;-62
2022/04/06 08:09:40;;;;;;;9.75;5.00;;;8.60;91.20;;;;;;5174300;27;20025;-62
2022/04/06 08:12:08;;;;;;;11.77;5.22;;;8.60;91.30;;;;;;5154922;27;20038;-61
2022/04/06 08:14:34;;;;;;;10.40;5.82;;;8.70;91.40;;;;;;5155977;27;20050;-60
2022/04/06 08:17:00;;;;;;;7.97;5.00;;;8.80;91.40;;;;;;5174461;27;20026;-59
2022/04/06 08:19:26;;;;;;;6.93;4.68;;;8.80;91.40;;;;;;5155342;27;20074;-59
2022/04/06 08:21:52;;;;;;;5.93;3.83;;;8.70;91.20;;;;;;5173539;27;20027;-56
2022/04/06 08:24:20;;;;;;;10.25;5.95;;;8.80;91.30;;;;;;5174243;27;20037;-59
2022/04/06 08:26:48;;;;;;;4.97;3.80;;;8.90;91.30;;;;;;5172390;27;20352;-60
2022/04/06 08:29:14;;;;;;;5.80;4.38;;;8.90;91.20;;;;;;5173124;27;20125;-59
2022/04/06 08:31:39;;;;;;;6.22;4.32;;;8.90;91.20;;;;;;5156896;27;20102;-58
2022/04/06 08:34:06;;;;;;;8.88;3.90;;;9.00;91.10;;;;;;5173434;27;21353;-53
2022/04/06 08:36:32;;;;;;;6.22;3.85;;;8.90;91.00;;;;;;5174081;27;20033;-56
2022/04/06 08:38:59;;;;;;;7.65;4.53;;;8.90;90.80;;;;;;5170961;27;20026;-56
2022/04/06 08:41:26;;;;;;;7.88;3.55;;;8.90;90.80;;;;;;5174242;27;20018;-52
2022/04/06 08:43:52;;;;;;;4.97;3.03;;;9.00;90.90;;;;;;5155320;27;20022;-52
2022/04/06 08:46:19;;;;;;;5.65;3.03;;;8.90;90.80;;;;;;5172673;27;20030;-53
2022/04/06 08:48:47;;;;;;;6.00;3.22;;;8.90;90.80;;;;;;5175272;27;20037;-55
2022/04/06 08:51:15;;;;;;;4.88;3.70;;;8.90;90.90;;;;;;5170734;27;20083;-54
2022/04/06 08:53:43;;;;;;;5.80;3.92;;;9.00;90.90;;;;;;5172803;27;20037;-56
2022/04/06 08:56:12;;;;;;;6.63;4.00;;;8.90;90.70;;;;;;5172644;27;20026;-52
2022/04/06 08:58:39;;;;;;;5.63;4.38;;;8.90;90.70;;;;;;5173740;27;20067;-56
2022/04/06 09:01:08;;;;;;;6.68;4.05;;;8.90;90.90;;;;;;5155470;27;20466;-60
2022/04/06 09:03:35;;;;;;;8.60;4.30;;;8.90;90.90;;;;;;5172921;27;20063;-61
2022/04/06 09:06:02;;;;;;;7.28;4.05;;;8.90;90.90;;;;;;5173576;27;20283;-60
2022/04/06 09:08:41;;;;;;;6.00;3.65;;;8.90;90.70;;;;;;5154513;27;20034;-58
2022/04/06 09:11:11;;;;;;;6.18;3.53;;;8.90;90.80;;;;;;5154431;27;20354;-58
2022/04/06 09:13:39;;;;;;;9.15;4.13;;;8.90;90.60;;;;;;5170532;27;20129;-54
2022/04/06 09:16:08;;;;;;;9.07;4.88;;;8.90;90.70;;;;;;5173599;27;20170;-57
2022/04/06 09:18:40;;;;;;;8.48;4.47;;;8.90;90.60;;;;;;5169691;27;20049;-55
2022/04/06 09:21:11;;;;;;;7.75;4.25;;;9.00;90.70;;;;;;5173530;27;20041;-55
2022/04/06 09:23:40;;;;;;;7.32;4.57;;;9.00;90.60;;;;;;5170036;27;20394;-55
2022/04/06 09:26:13;;;;;;;9.43;3.90;;;9.00;90.40;;;;;;5171429;27;20049;-52
2022/04/06 09:28:40;;;;;;;7.13;4.00;;;9.00;90.30;;;;;;5171317;27;20026;-53
2022/04/06 09:31:08;;;;;;;8.80;4.25;;;9.00;90.20;;;;;;5165537;27;20066;-49
2022/04/06 09:33:41;;;;;;;11.43;4.75;;;8.90;90.10;;;;;;5171047;27;20407;-51
2022/04/06 09:36:20;;;;;;;7.88;4.43;;;9.00;90.20;;;;;;5172475;27;20099;-49
2022/04/06 09:38:48;;;;;;;7.97;5.18;;;9.00;90.20;;;;;;5169940;27;20030;-51
2022/04/06 09:41:18;;;;;;;8.50;4.65;;;9.00;90.20;;;;;;5169366;27;20045;-49
2022/04/06 09:43:50;;;;;;;7.10;4.75;;;9.10;90.30;;;;;;5172672;27;20054;-49
2022/04/06 09:49:19;;;;;;;9.05;5.20;;;9.10;89.80;;;;;;5164723;27;20037;-52
2022/04/06 09:51:50;;;;;;;12.27;5.97;;;9.20;89.90;;;;;;5168610;27;20026;-47
2022/04/06 09:54:16;;;;;;;9.35;5.68;;;9.30;89.70;;;;;;5168267;27;20030;-50
2022/04/06 09:56:45;;;;;;;7.13;4.38;;;9.40;89.80;;;;;;5166875;27;20018;-46
2022/04/06 09:59:13;;;;;;;7.57;4.47;;;9.40;89.60;;;;;;5169855;27;20026;-48
2022/04/06 10:01:46;;;;;;;8.88;5.47;;;9.30;89.40;;;;;;5161262;27;20272;-45
2022/04/06 10:04:13;;;;;;;6.57;4.50;;;9.40;89.60;;;;;;5170144;27;20035;-50
2022/04/06 10:06:41;;;;;;;9.15;4.72;;;9.40;89.50;;;;;;5152337;27;20019;-46
2022/04/06 10:09:08;;;;;;;10.35;4.90;;;9.30;89.30;;;;;;5151460;27;20652;-47
2022/04/06 10:11:35;;;;;;;10.02;4.45;;;9.20;89.30;;;;;;5162878;27;20462;-45
2022/04/06 10:14:03;;;;;;;7.82;5.03;;;9.20;89.40;;;;;;5141446;27;20042;-45
2022/04/06 10:16:29;;;;;;;6.65;4.82;;;9.10;89.50;;;;;;5138549;27;20621;-49
2022/04/06 10:18:57;;;;;;;8.57;5.60;;;9.20;89.70;;;;;;5149942;27;20206;-49
2022/04/06 10:21:45;;;;;;;9.65;6.10;;;9.20;89.70;;;;;;5139454;27;20029;-47
2022/04/06 10:24:14;;;;;;;9.13;5.55;;;9.20;89.70;;;;;;5142275;27;20318;-48
2022/04/06 10:27:08;;;;;;;10.38;5.70;;;9.40;89.90;;;;;;5151016;27;20105;-51
2022/04/06 10:30:06;;;;;;;12.77;6.05;;;9.40;89.90;;;;;;5147397;27;20030;-46
2022/04/06 10:32:34;;;;;;;12.10;5.55;;;9.40;90.00;;;;;;5147896;27;20030;-48
2022/04/06 10:35:26;;;;;;;10.15;5.65;;;9.40;89.70;;;;;;5150057;27;20121;-51
2022/04/06 10:38:13;;;;;;;7.43;4.82;;;9.50;89.70;;;;;;5148143;27;20056;-54
2022/04/06 10:40:45;;;;;;;9.57;4.93;;;9.40;89.50;;;;;;5150058;27;20033;-49
2022/04/06 10:43:36;;;;;;;11.48;5.68;;;9.40;89.80;;;;;;5150305;27;20094;-54
2022/04/06 10:46:09;;;;;;;10.75;5.93;;;9.40;90.00;;;;;;5128080;27;20027;-50
2022/04/06 10:48:35;;;;;;;9.48;5.82;;;9.40;89.90;;;;;;5148605;27;20042;-51
2022/04/06 10:51:26;;;;;;;14.25;6.60;;;9.30;89.90;;;;;;5150233;27;20373;-46
2022/04/06 10:53:52;;;;;;;12.02;6.70;;;9.40;89.80;;;;;;5148335;27;20044;-48
2022/04/06 10:56:17;;;;;;;12.68;6.40;;;9.40;90.00;;;;;;5150603;27;20035;-44
2022/04/06 10:58:55;;;;;;;10.35;5.43;;;9.50;90.00;;;;;;5149552;27;20019;-46
2022/04/06 11:01:29;;;;;;;11.50;6.53;;;9.70;89.60;;;;;;5149076;27;20071;-45
2022/04/06 11:03:59;;;;;;;10.88;5.90;;;9.90;89.20;;;;;;5148207;27;20048;-47
2022/04/06 11:06:44;;;;;;;14.30;6.78;;;10.30;88.90;;;;;;5147807;27;20027;-43
2022/04/06 11:12:28;;;;;;;13.25;4.95;;;10.80;87.70;;;;;;5145087;27;20057;-43
2022/04/06 11:14:59;;;;;;;10.38;5.15;;;10.70;86.90;;;;;;5130873;27;20035;-43
2022/04/06 11:20:06;;;;;;;10.30;4.63;;;10.70;86.50;;;;;;5153552;27;20043;-42
2022/04/06 11:22:33;;;;;;;12.35;4.70;;;10.40;86.30;;;;;;5153084;27;20027;-44
2022/04/06 11:24:59;;;;;;;9.70;4.57;;;10.40;86.90;;;;;;5135662;27;20035;-43
2022/04/06 11:27:30;;;;;;;13.13;5.28;;;10.30;87.00;;;;;;5154496;27;20034;-46
2022/04/06 11:30:08;;;;;;;11.68;6.82;;;10.10;87.30;;;;;;5136642;27;20027;-50
2022/04/06 11:32:34;;;;;;;10.02;5.22;;;10.00;87.70;;;;;;5135397;27;20058;-47
2022/04/06 11:35:05;;;;;;;9.77;5.55;;;9.90;88.10;;;;;;5135874;27;20107;-46
2022/04/06 11:37:40;;;;;;;9.75;5.65;;;9.80;88.40;;;;;;5136574;27;20022;-48
2022/04/06 11:40:07;;;;;;;10.77;5.57;;;9.70;88.60;;;;;;5153044;27;20106;-47
2022/04/06 11:42:32;;;;;;;12.95;5.50;;;9.70;88.80;;;;;;5135197;27;20069;-48
2022/04/06 11:44:58;;;;;;;14.70;5.40;;;9.70;88.90;;;;;;5152728;27;20090;-47
2022/04/06 11:47:45;;;;;;;12.38;6.43;;;9.70;89.00;;;;;;5131747;27;20150;-51
2022/04/06 11:50:13;;;;;;;12.63;6.28;;;9.60;89.20;;;;;;5143059;27;20052;-46
2022/04/06 11:52:41;;;;;;;10.73;6.18;;;9.60;89.30;;;;;;5152233;27;20026;-47
2022/04/06 11:55:07;;;;;;;17.02;7.38;;;9.60;89.30;;;;;;5134503;27;20026;-46
2022/04/06 11:57:40;;;;;;;13.45;6.45;;;9.60;89.20;;;;;;5101462;27;20062;-45
2022/04/06 12:00:09;;;;;;;16.83;7.07;;;9.60;89.30;;;;;;5154067;27;20562;-46
2022/04/06 12:02:49;;;;;;;15.48;7.22;;;9.60;89.20;;;;;;5137909;27;20031;-58
2022/04/06 12:05:14;;;;;;;;;;;9.60;89.50;;;;;;5152490;27;20615;-60
2022/04/06 12:07:40;;;;;;;11.75;7.00;;;9.60;89.70;;;;;;5153153;27;19907;-59
2022/04/06 12:10:08;;;;;;;11.40;7.25;;;9.70;89.90;;;;;;5133667;27;20039;-57
2022/04/06 12:12:38;;;;;;;13.02;7.10;;;9.60;90.00;;;;;;5155133;27;20026;-54
2022/04/06 12:15:05;;;;;;;13.98;7.75;;;9.70;90.10;;;;;;5146948;27;20426;-52
2022/04/06 12:17:32;;;;;;;11.35;7.40;;;9.90;90.40;;;;;;5154305;27;20026;-49
2022/04/06 12:19:58;;;;;;;15.88;7.05;;;10.20;90.30;;;;;;5150880;27;20026;-47
2022/04/06 12:22:27;;;;;;;12.23;6.97;;;10.40;90.10;;;;;;5133313;27;20455;-48
2022/04/06 12:24:53;;;;;;;13.02;6.25;;;10.50;89.70;;;;;;5151745;27;20026;-45
2022/04/06 12:27:31;;;;;;;8.18;6.30;;;10.60;89.30;;;;;;5162262;27;20074;-47
2022/04/06 12:30:08;;;;;;;7.85;5.35;;;10.70;89.00;;;;;;5150664;27;20033;-48
2022/04/06 12:32:49;;;;;;;10.13;5.28;;;10.70;88.70;;;;;;5153815;27;20031;-45
2022/04/06 12:35:20;;;;;;;7.55;4.97;;;10.80;88.30;;;;;;5137069;27;20030;-45
2022/04/06 12:37:46;;;;;;;9.20;5.53;;;10.80;88.00;;;;;;5127365;27;20027;-47
2022/04/06 12:40:23;;;;;;;6.00;4.40;;;10.60;87.80;;;;;;5151790;27;20030;-50
2022/04/06 12:42:49;;;;;;;8.68;4.55;;;10.50;88.20;;;;;;5143720;27;20023;-54
2022/04/06 12:45:15;;;;;;;7.40;5.30;;;10.40;88.50;;;;;;5135334;27;20086;-52
2022/04/06 12:47:41;;;;;;;9.50;5.05;;;10.40;88.90;;;;;;5152305;27;20368;-51
2022/04/06 12:50:15;;;;;;;10.68;4.88;;;10.40;88.80;;;;;;5159982;27;20522;-51
2022/04/06 12:53:00;;;;;;;7.75;5.40;;;10.40;88.90;;;;;;5134765;27;20038;-52
2022/04/06 12:55:26;;;;;;;8.43;5.53;;;10.40;89.20;;;;;;5143168;27;20444;-47
2022/04/06 12:57:52;;;;;;;10.10;6.13;;;10.70;89.60;;;;;;5136245;27;20087;-46
2022/04/06 13:00:21;;;;;;;8.23;6.20;;;10.90;89.20;;;;;;5137271;27;20026;-48
2022/04/06 13:02:50;;;;;;;12.38;6.57;;;11.00;89.10;;;;;;5150300;27;20026;-45